sensor_id;sensor_type;location;lat;lon;timestamp;P1;durP1;ratioP1;P2;durP2;ratioP2
24145;SDS011;12308;50.948;4.706;2023-05-21T00:00:23;10.23;;;6.93;;
24145;SDS011;12308;50.948;4.706;2023-05-21T00:02:49;10.50;;;6.72;;
24145;SDS011;12308;50.948;4.706;2023-05-21T00:05:15;13.00;;;7.05;;
24145;SDS011;12308;50.948;4.706;2023-05-21T00:07:42;10.80;;;7.03;;
24145;SDS011;12308;50.948;4.706;2023-05-21T00:10:08;13.00;;;7.10;;
24145;SDS011;12308;50.948;4.706;2023-05-21T00:12:34;11.75;;;6.97;;
24145;SDS011;12308;50.948;4.706;2023-05-21T00:15:00;13.15;;;6.97;;
24145;SDS011;12308;50.948;4.706;2023-05-21T00:17:26;8.77;;;6.20;;
24145;SDS011;12308;50.948;4.706;2023-05-21T00:19:52;12.75;;;6.72;;
24145;SDS011;12308;50.948;4.706;2023-05-21T00:22:19;10.63;;;7.05;;
24145;SDS011;12308;50.948;4.706;2023-05-21T00:24:44;14.45;;;6.55;;
24145;SDS011;12308;50.948;4.706;2023-05-21T00:27:11;11.90;;;6.25;;
24145;SDS011;12308;50.948;4.706;2023-05-21T00:29:37;11.18;;;6.72;;
24145;SDS011;12308;50.948;4.706;2023-05-21T00:32:03;11.82;;;6.63;;
24145;SDS011;12308;50.948;4.706;2023-05-21T00:34:29;13.63;;;6.97;;
24145;SDS011;12308;50.948;4.706;2023-05-21T00:36:55;18.20;;;7.15;;
24145;SDS011;12308;50.948;4.706;2023-05-21T00:39:21;11.63;;;6.60;;
24145;SDS011;12308;50.948;4.706;2023-05-21T00:41:48;7.93;;;6.93;;
24145;SDS011;12308;50.948;4.706;2023-05-21T00:44:14;12.95;;;7.28;;
24145;SDS011;12308;50.948;4.706;2023-05-21T00:46:42;9.13;;;7.22;;
24145;SDS011;12308;50.948;4.706;2023-05-21T00:49:09;12.73;;;7.05;;
24145;SDS011;12308;50.948;4.706;2023-05-21T00:51:35;12.95;;;7.07;;
24145;SDS011;12308;50.948;4.706;2023-05-21T00:54:01;9.23;;;6.85;;
24145;SDS011;12308;50.948;4.706;2023-05-21T00:56:27;9.20;;;6.65;;
24145;SDS011;12308;50.948;4.706;2023-05-21T00:58:54;12.75;;;7.03;;
24145;SDS011;12308;50.948;4.706;2023-05-21T01:01:21;15.10;;;7.38;;
24145;SDS011;12308;50.948;4.706;2023-05-21T01:03:49;11.68;;;7.03;;
24145;SDS011;12308;50.948;4.706;2023-05-21T01:06:18;11.50;;;7.28;;
24145;SDS011;12308;50.948;4.706;2023-05-21T01:08:45;10.63;;;7.45;;
24145;SDS011;12308;50.948;4.706;2023-05-21T01:11:11;14.80;;;7.43;;
24145;SDS011;12308;50.948;4.706;2023-05-21T01:13:38;9.63;;;7.15;;
24145;SDS011;12308;50.948;4.706;2023-05-21T01:16:05;15.45;;;7.43;;
24145;SDS011;12308;50.948;4.706;2023-05-21T01:18:33;9.10;;;7.10;;
24145;SDS011;12308;50.948;4.706;2023-05-21T01:21:01;9.85;;;6.95;;
24145;SDS011;12308;50.948;4.706;2023-05-21T01:23:28;9.52;;;7.40;;
24145;SDS011;12308;50.948;4.706;2023-05-21T01:25:55;9.27;;;7.72;;
24145;SDS011;12308;50.948;4.706;2023-05-21T01:28:20;11.45;;;7.10;;
24145;SDS011;12308;50.948;4.706;2023-05-21T01:30:46;15.80;;;7.72;;
24145;SDS011;12308;50.948;4.706;2023-05-21T01:35:51;12.20;;;7.03;;
24145;SDS011;12308;50.948;4.706;2023-05-21T01:38:28;9.90;;;6.93;;
24145;SDS011;12308;50.948;4.706;2023-05-21T01:41:03;13.73;;;7.43;;
24145;SDS011;12308;50.948;4.706;2023-05-21T01:43:35;11.15;;;7.47;;
24145;SDS011;12308;50.948;4.706;2023-05-21T01:46:06;11.50;;;7.70;;
24145;SDS011;12308;50.948;4.706;2023-05-21T01:48:34;10.52;;;7.13;;
24145;SDS011;12308;50.948;4.706;2023-05-21T01:51:02;12.80;;;7.18;;
24145;SDS011;12308;50.948;4.706;2023-05-21T01:53:29;10.48;;;7.47;;
24145;SDS011;12308;50.948;4.706;2023-05-21T01:55:55;11.77;;;7.30;;
24145;SDS011;12308;50.948;4.706;2023-05-21T01:58:21;11.80;;;8.05;;
24145;SDS011;12308;50.948;4.706;2023-05-21T02:00:48;14.02;;;8.15;;
24145;SDS011;12308;50.948;4.706;2023-05-21T02:03:18;11.85;;;7.72;;
24145;SDS011;12308;50.948;4.706;2023-05-21T02:05:44;12.65;;;8.20;;
24145;SDS011;12308;50.948;4.706;2023-05-21T02:08:10;12.68;;;7.80;;
24145;SDS011;12308;50.948;4.706;2023-05-21T02:10:37;8.38;;;7.13;;
24145;SDS011;12308;50.948;4.706;2023-05-21T02:13:03;13.27;;;7.95;;
24145;SDS011;12308;50.948;4.706;2023-05-21T02:15:28;8.90;;;7.38;;
24145;SDS011;12308;50.948;4.706;2023-05-21T02:17:54;11.35;;;7.93;;
24145;SDS011;12308;50.948;4.706;2023-05-21T02:20:20;11.15;;;7.72;;
24145;SDS011;12308;50.948;4.706;2023-05-21T02:22:47;9.75;;;7.38;;
24145;SDS011;12308;50.948;4.706;2023-05-21T02:25:14;10.15;;;7.75;;
24145;SDS011;12308;50.948;4.706;2023-05-21T02:27:41;13.15;;;7.88;;
24145;SDS011;12308;50.948;4.706;2023-05-21T02:30:08;9.50;;;8.10;;
24145;SDS011;12308;50.948;4.706;2023-05-21T02:32:35;14.32;;;7.90;;
24145;SDS011;12308;50.948;4.706;2023-05-21T02:35:01;15.48;;;8.60;;
24145;SDS011;12308;50.948;4.706;2023-05-21T02:37:28;12.93;;;8.00;;
24145;SDS011;12308;50.948;4.706;2023-05-21T02:39:57;10.95;;;7.40;;
24145;SDS011;12308;50.948;4.706;2023-05-21T02:42:23;13.38;;;8.02;;
24145;SDS011;12308;50.948;4.706;2023-05-21T02:44:50;12.43;;;8.15;;
24145;SDS011;12308;50.948;4.706;2023-05-21T02:47:17;10.65;;;8.20;;
24145;SDS011;12308;50.948;4.706;2023-05-21T02:49:43;10.07;;;8.20;;
24145;SDS011;12308;50.948;4.706;2023-05-21T02:52:09;10.65;;;8.60;;
24145;SDS011;12308;50.948;4.706;2023-05-21T02:54:35;12.15;;;8.80;;
24145;SDS011;12308;50.948;4.706;2023-05-21T02:57:01;12.98;;;8.40;;
24145;SDS011;12308;50.948;4.706;2023-05-21T02:59:27;15.20;;;8.57;;
24145;SDS011;12308;50.948;4.706;2023-05-21T03:01:52;12.57;;;8.98;;
24145;SDS011;12308;50.948;4.706;2023-05-21T03:04:18;14.38;;;8.95;;
24145;SDS011;12308;50.948;4.706;2023-05-21T03:06:48;9.68;;;8.07;;
24145;SDS011;12308;50.948;4.706;2023-05-21T03:09:18;12.00;;;8.60;;
24145;SDS011;12308;50.948;4.706;2023-05-21T03:11:45;20.80;;;8.35;;
24145;SDS011;12308;50.948;4.706;2023-05-21T03:14:11;11.23;;;8.82;;
24145;SDS011;12308;50.948;4.706;2023-05-21T03:16:37;12.40;;;8.98;;
24145;SDS011;12308;50.948;4.706;2023-05-21T03:19:06;13.52;;;8.98;;
24145;SDS011;12308;50.948;4.706;2023-05-21T03:21:32;12.50;;;9.05;;
24145;SDS011;12308;50.948;4.706;2023-05-21T03:23:58;15.48;;;9.80;;
24145;SDS011;12308;50.948;4.706;2023-05-21T03:26:24;16.83;;;9.32;;
24145;SDS011;12308;50.948;4.706;2023-05-21T03:28:54;16.30;;;10.45;;
24145;SDS011;12308;50.948;4.706;2023-05-21T03:31:20;15.70;;;10.10;;
24145;SDS011;12308;50.948;4.706;2023-05-21T03:33:46;17.70;;;10.35;;
24145;SDS011;12308;50.948;4.706;2023-05-21T03:36:12;15.85;;;10.65;;
24145;SDS011;12308;50.948;4.706;2023-05-21T03:38:38;14.80;;;10.23;;
24145;SDS011;12308;50.948;4.706;2023-05-21T03:41:04;16.67;;;10.48;;
24145;SDS011;12308;50.948;4.706;2023-05-21T03:43:32;13.95;;;10.63;;
24145;SDS011;12308;50.948;4.706;2023-05-21T03:45:57;12.68;;;9.70;;
24145;SDS011;12308;50.948;4.706;2023-05-21T03:48:23;16.58;;;10.45;;
24145;SDS011;12308;50.948;4.706;2023-05-21T03:50:48;18.10;;;10.75;;
24145;SDS011;12308;50.948;4.706;2023-05-21T03:53:15;18.70;;;11.25;;
24145;SDS011;12308;50.948;4.706;2023-05-21T03:55:41;15.35;;;11.02;;
24145;SDS011;12308;50.948;4.706;2023-05-21T03:58:07;27.27;;;11.18;;
24145;SDS011;12308;50.948;4.706;2023-05-21T04:00:34;15.82;;;11.32;;
24145;SDS011;12308;50.948;4.706;2023-05-21T04:03:03;16.65;;;11.20;;
24145;SDS011;12308;50.948;4.706;2023-05-21T04:05:29;20.10;;;11.43;;
24145;SDS011;12308;50.948;4.706;2023-05-21T04:07:55;17.70;;;11.35;;
24145;SDS011;12308;50.948;4.706;2023-05-21T04:10:22;15.45;;;11.52;;
24145;SDS011;12308;50.948;4.706;2023-05-21T04:12:48;17.50;;;12.02;;
24145;SDS011;12308;50.948;4.706;2023-05-21T04:15:16;17.85;;;12.57;;
24145;SDS011;12308;50.948;4.706;2023-05-21T04:17:45;16.05;;;11.73;;
24145;SDS011;12308;50.948;4.706;2023-05-21T04:20:11;15.02;;;11.77;;
24145;SDS011;12308;50.948;4.706;2023-05-21T04:22:38;18.30;;;12.35;;
24145;SDS011;12308;50.948;4.706;2023-05-21T04:25:04;21.77;;;11.52;;
24145;SDS011;12308;50.948;4.706;2023-05-21T04:27:30;13.20;;;11.43;;
24145;SDS011;12308;50.948;4.706;2023-05-21T04:29:56;17.65;;;11.85;;
24145;SDS011;12308;50.948;4.706;2023-05-21T04:32:22;17.25;;;11.75;;
24145;SDS011;12308;50.948;4.706;2023-05-21T04:34:48;16.05;;;11.90;;
24145;SDS011;12308;50.948;4.706;2023-05-21T04:37:14;17.63;;;12.30;;
24145;SDS011;12308;50.948;4.706;2023-05-21T04:39:42;20.02;;;12.85;;
24145;SDS011;12308;50.948;4.706;2023-05-21T04:42:08;16.33;;;12.02;;
24145;SDS011;12308;50.948;4.706;2023-05-21T04:44:35;15.38;;;11.52;;
24145;SDS011;12308;50.948;4.706;2023-05-21T04:47:02;15.15;;;12.32;;
24145;SDS011;12308;50.948;4.706;2023-05-21T04:49:28;15.00;;;12.02;;
24145;SDS011;12308;50.948;4.706;2023-05-21T04:51:54;18.73;;;12.80;;
24145;SDS011;12308;50.948;4.706;2023-05-21T04:54:20;15.95;;;12.00;;
24145;SDS011;12308;50.948;4.706;2023-05-21T04:56:46;19.05;;;12.68;;
24145;SDS011;12308;50.948;4.706;2023-05-21T04:59:12;18.00;;;12.70;;
24145;SDS011;12308;50.948;4.706;2023-05-21T05:01:38;20.13;;;12.02;;
24145;SDS011;12308;50.948;4.706;2023-05-21T05:04:05;18.08;;;13.27;;
24145;SDS011;12308;50.948;4.706;2023-05-21T05:06:31;15.32;;;11.70;;
24145;SDS011;12308;50.948;4.706;2023-05-21T05:09:00;18.40;;;12.50;;
24145;SDS011;12308;50.948;4.706;2023-05-21T05:11:26;20.33;;;12.02;;
24145;SDS011;12308;50.948;4.706;2023-05-21T05:13:51;17.08;;;11.75;;
24145;SDS011;12308;50.948;4.706;2023-05-21T05:16:17;17.08;;;12.38;;
24145;SDS011;12308;50.948;4.706;2023-05-21T05:18:49;18.38;;;12.00;;
24145;SDS011;12308;50.948;4.706;2023-05-21T05:21:19;15.70;;;12.30;;
24145;SDS011;12308;50.948;4.706;2023-05-21T05:23:46;20.63;;;12.75;;
24145;SDS011;12308;50.948;4.706;2023-05-21T05:26:11;19.38;;;14.07;;
24145;SDS011;12308;50.948;4.706;2023-05-21T05:28:37;19.20;;;12.35;;
24145;SDS011;12308;50.948;4.706;2023-05-21T05:31:03;19.13;;;13.57;;
24145;SDS011;12308;50.948;4.706;2023-05-21T05:33:29;18.30;;;13.38;;
24145;SDS011;12308;50.948;4.706;2023-05-21T05:35:54;19.00;;;13.95;;
24145;SDS011;12308;50.948;4.706;2023-05-21T05:38:20;16.88;;;13.38;;
24145;SDS011;12308;50.948;4.706;2023-05-21T05:40:46;21.92;;;14.10;;
24145;SDS011;12308;50.948;4.706;2023-05-21T05:43:12;19.13;;;14.07;;
24145;SDS011;12308;50.948;4.706;2023-05-21T05:45:37;20.50;;;15.15;;
24145;SDS011;12308;50.948;4.706;2023-05-21T05:48:03;18.23;;;15.05;;
24145;SDS011;12308;50.948;4.706;2023-05-21T05:50:29;21.83;;;15.13;;
24145;SDS011;12308;50.948;4.706;2023-05-21T05:52:55;21.45;;;14.60;;
24145;SDS011;12308;50.948;4.706;2023-05-21T05:55:20;20.98;;;14.85;;
24145;SDS011;12308;50.948;4.706;2023-05-21T05:57:46;22.45;;;15.75;;
24145;SDS011;12308;50.948;4.706;2023-05-21T06:00:12;21.00;;;15.45;;
24145;SDS011;12308;50.948;4.706;2023-05-21T06:02:38;22.50;;;14.32;;
24145;SDS011;12308;50.948;4.706;2023-05-21T06:05:05;22.58;;;15.55;;
24145;SDS011;12308;50.948;4.706;2023-05-21T06:07:31;18.98;;;14.90;;
24145;SDS011;12308;50.948;4.706;2023-05-21T06:09:57;20.65;;;15.05;;
24145;SDS011;12308;50.948;4.706;2023-05-21T06:12:24;19.25;;;14.38;;
24145;SDS011;12308;50.948;4.706;2023-05-21T06:14:50;21.60;;;15.45;;
24145;SDS011;12308;50.948;4.706;2023-05-21T06:17:15;19.48;;;16.15;;
24145;SDS011;12308;50.948;4.706;2023-05-21T06:19:41;22.08;;;15.98;;
24145;SDS011;12308;50.948;4.706;2023-05-21T06:22:09;19.88;;;15.65;;
24145;SDS011;12308;50.948;4.706;2023-05-21T06:24:34;22.25;;;15.73;;
24145;SDS011;12308;50.948;4.706;2023-05-21T06:27:00;17.92;;;15.18;;
24145;SDS011;12308;50.948;4.706;2023-05-21T06:29:28;23.42;;;15.10;;
24145;SDS011;12308;50.948;4.706;2023-05-21T06:31:53;22.77;;;15.38;;
24145;SDS011;12308;50.948;4.706;2023-05-21T06:34:19;19.75;;;15.10;;
24145;SDS011;12308;50.948;4.706;2023-05-21T06:36:45;20.88;;;14.70;;
24145;SDS011;12308;50.948;4.706;2023-05-21T06:39:11;25.33;;;14.65;;
24145;SDS011;12308;50.948;4.706;2023-05-21T06:41:37;20.70;;;15.57;;
24145;SDS011;12308;50.948;4.706;2023-05-21T06:44:03;22.90;;;14.90;;
24145;SDS011;12308;50.948;4.706;2023-05-21T06:46:30;21.13;;;14.43;;
24145;SDS011;12308;50.948;4.706;2023-05-21T06:48:56;30.17;;;14.18;;
24145;SDS011;12308;50.948;4.706;2023-05-21T06:51:21;19.02;;;14.70;;
24145;SDS011;12308;50.948;4.706;2023-05-21T06:53:47;20.38;;;14.32;;
24145;SDS011;12308;50.948;4.706;2023-05-21T06:56:13;20.92;;;14.32;;
24145;SDS011;12308;50.948;4.706;2023-05-21T06:58:39;20.25;;;14.30;;
24145;SDS011;12308;50.948;4.706;2023-05-21T07:01:04;18.60;;;14.07;;
24145;SDS011;12308;50.948;4.706;2023-05-21T07:03:30;18.60;;;13.95;;
24145;SDS011;12308;50.948;4.706;2023-05-21T07:05:56;19.83;;;14.45;;
24145;SDS011;12308;50.948;4.706;2023-05-21T07:08:22;17.42;;;14.52;;
24145;SDS011;12308;50.948;4.706;2023-05-21T07:10:48;23.92;;;14.05;;
24145;SDS011;12308;50.948;4.706;2023-05-21T07:13:14;17.80;;;13.20;;
24145;SDS011;12308;50.948;4.706;2023-05-21T07:15:40;19.27;;;13.85;;
24145;SDS011;12308;50.948;4.706;2023-05-21T07:18:06;16.05;;;13.57;;
24145;SDS011;12308;50.948;4.706;2023-05-21T07:20:31;21.23;;;14.38;;
24145;SDS011;12308;50.948;4.706;2023-05-21T07:22:57;20.83;;;13.82;;
24145;SDS011;12308;50.948;4.706;2023-05-21T07:25:23;29.17;;;14.15;;
24145;SDS011;12308;50.948;4.706;2023-05-21T07:27:49;22.00;;;14.68;;
24145;SDS011;12308;50.948;4.706;2023-05-21T07:30:14;19.52;;;14.15;;
24145;SDS011;12308;50.948;4.706;2023-05-21T07:32:40;15.38;;;13.32;;
24145;SDS011;12308;50.948;4.706;2023-05-21T07:35:06;20.13;;;13.98;;
24145;SDS011;12308;50.948;4.706;2023-05-21T07:37:32;19.23;;;14.45;;
24145;SDS011;12308;50.948;4.706;2023-05-21T07:39:58;23.13;;;14.35;;
24145;SDS011;12308;50.948;4.706;2023-05-21T07:42:24;18.17;;;13.88;;
24145;SDS011;12308;50.948;4.706;2023-05-21T07:44:50;21.02;;;14.32;;
24145;SDS011;12308;50.948;4.706;2023-05-21T07:47:15;22.27;;;14.50;;
24145;SDS011;12308;50.948;4.706;2023-05-21T07:49:41;22.17;;;14.75;;
24145;SDS011;12308;50.948;4.706;2023-05-21T07:52:07;19.67;;;14.00;;
24145;SDS011;12308;50.948;4.706;2023-05-21T07:54:33;18.10;;;14.75;;
24145;SDS011;12308;50.948;4.706;2023-05-21T07:56:59;21.27;;;15.63;;
24145;SDS011;12308;50.948;4.706;2023-05-21T07:59:26;21.73;;;14.93;;
24145;SDS011;12308;50.948;4.706;2023-05-21T08:01:53;18.20;;;14.88;;
24145;SDS011;12308;50.948;4.706;2023-05-21T08:04:19;19.58;;;15.05;;
24145;SDS011;12308;50.948;4.706;2023-05-21T08:06:44;22.50;;;14.55;;
24145;SDS011;12308;50.948;4.706;2023-05-21T08:09:10;21.45;;;14.90;;
24145;SDS011;12308;50.948;4.706;2023-05-21T08:11:36;19.85;;;15.05;;
24145;SDS011;12308;50.948;4.706;2023-05-21T08:14:02;18.70;;;14.98;;
24145;SDS011;12308;50.948;4.706;2023-05-21T08:16:28;20.60;;;15.00;;
24145;SDS011;12308;50.948;4.706;2023-05-21T08:18:54;21.65;;;15.40;;
24145;SDS011;12308;50.948;4.706;2023-05-21T08:21:20;20.27;;;16.25;;
24145;SDS011;12308;50.948;4.706;2023-05-21T08:23:46;20.02;;;15.07;;
24145;SDS011;12308;50.948;4.706;2023-05-21T08:26:12;22.73;;;16.15;;
24145;SDS011;12308;50.948;4.706;2023-05-21T08:28:40;21.60;;;16.70;;
24145;SDS011;12308;50.948;4.706;2023-05-21T08:31:06;21.40;;;15.93;;
24145;SDS011;12308;50.948;4.706;2023-05-21T08:33:33;22.20;;;15.70;;
24145;SDS011;12308;50.948;4.706;2023-05-21T08:36:01;21.33;;;15.40;;
24145;SDS011;12308;50.948;4.706;2023-05-21T08:38:28;21.30;;;15.70;;
24145;SDS011;12308;50.948;4.706;2023-05-21T08:40:54;21.92;;;16.08;;
24145;SDS011;12308;50.948;4.706;2023-05-21T08:43:20;32.38;;;16.70;;
24145;SDS011;12308;50.948;4.706;2023-05-21T08:45:53;22.77;;;15.98;;
24145;SDS011;12308;50.948;4.706;2023-05-21T08:48:23;20.30;;;15.57;;
24145;SDS011;12308;50.948;4.706;2023-05-21T08:50:50;24.20;;;16.40;;
24145;SDS011;12308;50.948;4.706;2023-05-21T08:53:16;18.58;;;14.85;;
24145;SDS011;12308;50.948;4.706;2023-05-21T08:55:42;28.40;;;17.42;;
24145;SDS011;12308;50.948;4.706;2023-05-21T08:58:08;26.77;;;15.82;;
24145;SDS011;12308;50.948;4.706;2023-05-21T09:00:34;24.25;;;17.00;;
24145;SDS011;12308;50.948;4.706;2023-05-21T09:03:03;26.25;;;16.92;;
24145;SDS011;12308;50.948;4.706;2023-05-21T09:05:33;26.40;;;17.43;;
24145;SDS011;12308;50.948;4.706;2023-05-21T09:08:05;22.98;;;17.45;;
24145;SDS011;12308;50.948;4.706;2023-05-21T09:10:35;21.60;;;17.08;;
24145;SDS011;12308;50.948;4.706;2023-05-21T09:13:03;24.05;;;17.58;;
24145;SDS011;12308;50.948;4.706;2023-05-21T09:15:31;24.42;;;17.58;;
24145;SDS011;12308;50.948;4.706;2023-05-21T09:17:57;21.63;;;16.58;;
24145;SDS011;12308;50.948;4.706;2023-05-21T09:20:27;23.15;;;16.88;;
24145;SDS011;12308;50.948;4.706;2023-05-21T09:22:53;28.65;;;17.75;;
24145;SDS011;12308;50.948;4.706;2023-05-21T09:25:22;24.67;;;17.73;;
24145;SDS011;12308;50.948;4.706;2023-05-21T09:27:52;22.63;;;17.42;;
24145;SDS011;12308;50.948;4.706;2023-05-21T09:30:20;32.10;;;18.13;;
24145;SDS011;12308;50.948;4.706;2023-05-21T09:32:52;27.92;;;16.88;;
24145;SDS011;12308;50.948;4.706;2023-05-21T09:35:20;26.88;;;19.58;;
24145;SDS011;12308;50.948;4.706;2023-05-21T09:37:49;23.55;;;17.33;;
24145;SDS011;12308;50.948;4.706;2023-05-21T09:40:17;23.70;;;18.50;;
24145;SDS011;12308;50.948;4.706;2023-05-21T09:43:01;31.65;;;18.05;;
24145;SDS011;12308;50.948;4.706;2023-05-21T09:45:27;26.85;;;18.50;;
24145;SDS011;12308;50.948;4.706;2023-05-21T09:47:53;30.52;;;17.58;;
24145;SDS011;12308;50.948;4.706;2023-05-21T09:52:45;26.73;;;17.65;;
24145;SDS011;12308;50.948;4.706;2023-05-21T09:55:12;24.15;;;17.13;;
24145;SDS011;12308;50.948;4.706;2023-05-21T09:57:47;27.73;;;17.83;;
24145;SDS011;12308;50.948;4.706;2023-05-21T10:02:48;27.70;;;18.73;;
24145;SDS011;12308;50.948;4.706;2023-05-21T10:05:36;26.80;;;19.08;;
24145;SDS011;12308;50.948;4.706;2023-05-21T10:08:02;27.25;;;19.58;;
24145;SDS011;12308;50.948;4.706;2023-05-21T10:10:29;27.38;;;19.02;;
24145;SDS011;12308;50.948;4.706;2023-05-21T10:13:04;26.70;;;19.48;;
24145;SDS011;12308;50.948;4.706;2023-05-21T10:15:42;24.90;;;17.15;;
24145;SDS011;12308;50.948;4.706;2023-05-21T10:18:10;28.33;;;18.90;;
24145;SDS011;12308;50.948;4.706;2023-05-21T10:20:37;26.13;;;20.27;;
24145;SDS011;12308;50.948;4.706;2023-05-21T10:23:03;27.52;;;20.10;;
24145;SDS011;12308;50.948;4.706;2023-05-21T10:25:30;30.85;;;18.98;;
24145;SDS011;12308;50.948;4.706;2023-05-21T10:27:56;23.02;;;18.48;;
24145;SDS011;12308;50.948;4.706;2023-05-21T10:30:22;26.27;;;19.17;;
24145;SDS011;12308;50.948;4.706;2023-05-21T10:32:48;26.52;;;19.55;;
24145;SDS011;12308;50.948;4.706;2023-05-21T10:35:15;28.70;;;19.35;;
24145;SDS011;12308;50.948;4.706;2023-05-21T10:37:44;26.40;;;18.90;;
24145;SDS011;12308;50.948;4.706;2023-05-21T10:40:10;30.25;;;20.50;;
24145;SDS011;12308;50.948;4.706;2023-05-21T11:01:46;32.22;;;21.35;;
24145;SDS011;12308;50.948;4.706;2023-05-21T11:04:14;27.80;;;20.80;;
24145;SDS011;12308;50.948;4.706;2023-05-21T11:06:45;32.65;;;21.58;;
24145;SDS011;12308;50.948;4.706;2023-05-21T11:11:39;29.85;;;20.80;;
24145;SDS011;12308;50.948;4.706;2023-05-21T11:14:27;28.35;;;21.70;;
24145;SDS011;12308;50.948;4.706;2023-05-21T11:16:59;23.80;;;19.80;;
24145;SDS011;12308;50.948;4.706;2023-05-21T11:19:36;30.52;;;21.42;;
24145;SDS011;12308;50.948;4.706;2023-05-21T11:22:06;28.75;;;21.20;;
24145;SDS011;12308;50.948;4.706;2023-05-21T11:24:37;31.17;;;23.30;;
24145;SDS011;12308;50.948;4.706;2023-05-21T11:27:04;28.15;;;19.50;;
24145;SDS011;12308;50.948;4.706;2023-05-21T11:29:31;26.10;;;21.17;;
24145;SDS011;12308;50.948;4.706;2023-05-21T11:32:10;29.73;;;21.65;;
24145;SDS011;12308;50.948;4.706;2023-05-21T11:34:38;32.38;;;21.27;;
24145;SDS011;12308;50.948;4.706;2023-05-21T11:39:46;28.40;;;21.33;;
24145;SDS011;12308;50.948;4.706;2023-05-21T11:42:12;33.40;;;21.55;;
24145;SDS011;12308;50.948;4.706;2023-05-21T11:44:59;27.15;;;20.70;;
24145;SDS011;12308;50.948;4.706;2023-05-21T11:47:26;27.38;;;21.45;;
24145;SDS011;12308;50.948;4.706;2023-05-21T11:49:54;33.30;;;22.73;;
24145;SDS011;12308;50.948;4.706;2023-05-21T11:52:21;31.77;;;21.98;;
24145;SDS011;12308;50.948;4.706;2023-05-21T11:54:51;33.00;;;20.75;;
24145;SDS011;12308;50.948;4.706;2023-05-21T11:57:25;30.83;;;21.95;;
24145;SDS011;12308;50.948;4.706;2023-05-21T11:59:54;32.53;;;22.27;;
24145;SDS011;12308;50.948;4.706;2023-05-21T12:02:23;27.90;;;20.98;;
24145;SDS011;12308;50.948;4.706;2023-05-21T12:04:51;31.17;;;22.00;;
24145;SDS011;12308;50.948;4.706;2023-05-21T12:07:17;34.63;;;23.38;;
24145;SDS011;12308;50.948;4.706;2023-05-21T12:09:47;32.15;;;21.45;;
24145;SDS011;12308;50.948;4.706;2023-05-21T12:12:15;31.03;;;21.47;;
24145;SDS011;12308;50.948;4.706;2023-05-21T12:14:42;31.13;;;22.38;;
24145;SDS011;12308;50.948;4.706;2023-05-21T12:17:12;30.30;;;22.52;;
24145;SDS011;12308;50.948;4.706;2023-05-21T12:19:41;30.08;;;22.10;;
24145;SDS011;12308;50.948;4.706;2023-05-21T12:22:07;29.92;;;22.42;;
24145;SDS011;12308;50.948;4.706;2023-05-21T12:24:34;29.42;;;22.60;;
24145;SDS011;12308;50.948;4.706;2023-05-21T12:27:02;29.80;;;23.63;;
24145;SDS011;12308;50.948;4.706;2023-05-21T12:29:33;29.65;;;22.63;;
24145;SDS011;12308;50.948;4.706;2023-05-21T12:32:11;34.42;;;22.02;;
24145;SDS011;12308;50.948;4.706;2023-05-21T12:37:04;29.48;;;23.38;;
24145;SDS011;12308;50.948;4.706;2023-05-21T12:39:32;30.85;;;22.58;;
24145;SDS011;12308;50.948;4.706;2023-05-21T12:42:01;31.45;;;21.88;;
24145;SDS011;12308;50.948;4.706;2023-05-21T12:44:30;31.17;;;22.85;;
24145;SDS011;12308;50.948;4.706;2023-05-21T12:46:56;28.77;;;21.95;;
24145;SDS011;12308;50.948;4.706;2023-05-21T12:49:30;33.45;;;22.98;;
24145;SDS011;12308;50.948;4.706;2023-05-21T12:51:56;28.33;;;22.67;;
24145;SDS011;12308;50.948;4.706;2023-05-21T12:54:27;31.20;;;22.58;;
24145;SDS011;12308;50.948;4.706;2023-05-21T12:56:57;29.08;;;22.52;;
24145;SDS011;12308;50.948;4.706;2023-05-21T12:59:38;34.33;;;24.45;;
24145;SDS011;12308;50.948;4.706;2023-05-21T13:02:17;30.05;;;22.75;;
24145;SDS011;12308;50.948;4.706;2023-05-21T13:04:46;34.42;;;22.50;;
24145;SDS011;12308;50.948;4.706;2023-05-21T13:07:12;26.42;;;21.15;;
24145;SDS011;12308;50.948;4.706;2023-05-21T13:09:40;25.98;;;21.02;;
24145;SDS011;12308;50.948;4.706;2023-05-21T13:12:06;33.33;;;23.17;;
24145;SDS011;12308;50.948;4.706;2023-05-21T13:14:32;28.20;;;21.85;;
24145;SDS011;12308;50.948;4.706;2023-05-21T13:16:57;28.42;;;21.92;;
24145;SDS011;12308;50.948;4.706;2023-05-21T13:19:23;30.88;;;21.17;;
24145;SDS011;12308;50.948;4.706;2023-05-21T13:21:49;30.38;;;22.33;;
24145;SDS011;12308;50.948;4.706;2023-05-21T13:24:15;30.15;;;21.83;;
24145;SDS011;12308;50.948;4.706;2023-05-21T13:26:40;28.63;;;20.92;;
24145;SDS011;12308;50.948;4.706;2023-05-21T13:29:06;28.10;;;20.13;;
24145;SDS011;12308;50.948;4.706;2023-05-21T13:31:32;28.92;;;21.15;;
24145;SDS011;12308;50.948;4.706;2023-05-21T13:33:57;29.52;;;22.02;;
24145;SDS011;12308;50.948;4.706;2023-05-21T13:36:23;26.92;;;21.23;;
24145;SDS011;12308;50.948;4.706;2023-05-21T13:38:48;33.45;;;22.88;;
24145;SDS011;12308;50.948;4.706;2023-05-21T13:41:14;29.17;;;22.48;;
24145;SDS011;12308;50.948;4.706;2023-05-21T13:43:43;31.17;;;21.92;;
24145;SDS011;12308;50.948;4.706;2023-05-21T13:46:09;29.95;;;21.23;;
24145;SDS011;12308;50.948;4.706;2023-05-21T13:48:34;27.55;;;20.95;;
24145;SDS011;12308;50.948;4.706;2023-05-21T13:51:00;27.02;;;21.35;;
24145;SDS011;12308;50.948;4.706;2023-05-21T13:53:26;30.58;;;21.88;;
24145;SDS011;12308;50.948;4.706;2023-05-21T13:55:51;27.27;;;21.25;;
24145;SDS011;12308;50.948;4.706;2023-05-21T13:58:17;27.70;;;21.90;;
24145;SDS011;12308;50.948;4.706;2023-05-21T14:00:43;29.17;;;21.77;;
24145;SDS011;12308;50.948;4.706;2023-05-21T14:03:08;28.20;;;21.58;;
24145;SDS011;12308;50.948;4.706;2023-05-21T14:05:35;34.90;;;21.77;;
24145;SDS011;12308;50.948;4.706;2023-05-21T14:08:01;28.85;;;19.80;;
24145;SDS011;12308;50.948;4.706;2023-05-21T14:10:27;25.10;;;19.58;;
24145;SDS011;12308;50.948;4.706;2023-05-21T14:12:53;25.88;;;21.02;;
24145;SDS011;12308;50.948;4.706;2023-05-21T14:15:18;26.00;;;20.38;;
24145;SDS011;12308;50.948;4.706;2023-05-21T14:17:45;25.55;;;20.40;;
24145;SDS011;12308;50.948;4.706;2023-05-21T14:20:10;28.77;;;21.15;;
24145;SDS011;12308;50.948;4.706;2023-05-21T14:22:36;30.77;;;21.95;;
24145;SDS011;12308;50.948;4.706;2023-05-21T14:25:02;27.17;;;20.00;;
24145;SDS011;12308;50.948;4.706;2023-05-21T14:27:28;30.13;;;19.98;;
24145;SDS011;12308;50.948;4.706;2023-05-21T14:29:54;24.10;;;20.02;;
24145;SDS011;12308;50.948;4.706;2023-05-21T14:32:20;26.90;;;20.90;;
24145;SDS011;12308;50.948;4.706;2023-05-21T14:34:45;29.10;;;21.92;;
24145;SDS011;12308;50.948;4.706;2023-05-21T14:37:11;28.08;;;20.63;;
24145;SDS011;12308;50.948;4.706;2023-05-21T14:39:37;26.52;;;20.55;;
24145;SDS011;12308;50.948;4.706;2023-05-21T14:42:03;30.05;;;21.75;;
24145;SDS011;12308;50.948;4.706;2023-05-21T14:44:29;28.90;;;20.77;;
24145;SDS011;12308;50.948;4.706;2023-05-21T14:46:55;31.20;;;20.92;;
24145;SDS011;12308;50.948;4.706;2023-05-21T14:49:20;25.35;;;20.10;;
24145;SDS011;12308;50.948;4.706;2023-05-21T14:51:46;32.97;;;21.40;;
24145;SDS011;12308;50.948;4.706;2023-05-21T14:54:12;32.70;;;21.23;;
24145;SDS011;12308;50.948;4.706;2023-05-21T14:56:38;30.23;;;22.08;;
24145;SDS011;12308;50.948;4.706;2023-05-21T14:59:04;30.20;;;21.40;;